Terminal Aerodrome Forecast
Issued by NWS Twin Cities, MN

Home | Current Version | Previous Version | Text Only | Print | Product List | Glossary Off
Versions: 1 2 3 4 5 6 7 8 9 10 11 12 13 14 15 16 17 18

625
FTUS43 KMPX 151442 AAA
TAFEAU
TAF AMD
KEAU 151442Z 1515/1612 29010G16KT P6SM OVC009
     FM151600 30015G23KT P6SM OVC012
     FM160600 33008KT P6SM OVC018=

USA.gov is the U.S. government's official web portal to all federal, state and local government web resources and services.